sensor_id;sensor_type;location;lat;lon;timestamp;pressure;altitude;pressure_sealevel;temperature;humidity
60345;BME280;46188;52.324;8.032;2023-09-19T00:01:58;99472.84;;;15.96;100.00
60345;BME280;46188;52.324;8.032;2023-09-19T00:04:23;99486.28;;;15.90;100.00
60345;BME280;46188;52.324;8.032;2023-09-19T00:06:54;99477.53;;;15.86;100.00
60345;BME280;46188;52.324;8.032;2023-09-19T00:09:19;99496.97;;;15.89;100.00
60345;BME280;46188;52.324;8.032;2023-09-19T00:11:44;99493.44;;;15.88;100.00
60345;BME280;46188;52.324;8.032;2023-09-19T00:14:12;99494.22;;;15.92;100.00
60345;BME280;46188;52.324;8.032;2023-09-19T00:16:39;99506.34;;;16.02;100.00
60345;BME280;46188;52.324;8.032;2023-09-19T00:19:06;99511.53;;;16.07;100.00
60345;BME280;46188;52.324;8.032;2023-09-19T00:21:32;99507.22;;;16.04;100.00
60345;BME280;46188;52.324;8.032;2023-09-19T00:23:58;99504.31;;;16.12;100.00
60345;BME280;46188;52.324;8.032;2023-09-19T00:26:23;99516.72;;;16.13;100.00
60345;BME280;46188;52.324;8.032;2023-09-19T00:28:52;99509.63;;;16.12;100.00
60345;BME280;46188;52.324;8.032;2023-09-19T00:31:17;99509.63;;;16.12;100.00
60345;BME280;46188;52.324;8.032;2023-09-19T00:33:43;99516.72;;;16.13;100.00
60345;BME280;46188;52.324;8.032;2023-09-19T00:36:08;99506.84;;;16.16;100.00
60345;BME280;46188;52.324;8.032;2023-09-19T00:38:33;99514.84;;;16.16;100.00
60345;BME280;46188;52.324;8.032;2023-09-19T00:40:59;99516.63;;;16.16;100.00
60345;BME280;46188;52.324;8.032;2023-09-19T00:43:25;99518.28;;;16.20;100.00
60345;BME280;46188;52.324;8.032;2023-09-19T00:45:52;99524.41;;;16.23;100.00
60345;BME280;46188;52.324;8.032;2023-09-19T00:48:19;99528.13;;;16.16;100.00
60345;BME280;46188;52.324;8.032;2023-09-19T00:50:46;99534.50;;;16.11;100.00
60345;BME280;46188;52.324;8.032;2023-09-19T00:53:14;99527.44;;;16.10;100.00
60345;BME280;46188;52.324;8.032;2023-09-19T00:55:41;99531.81;;;16.12;100.00
60345;BME280;46188;52.324;8.032;2023-09-19T00:58:08;99539.03;;;16.07;100.00
60345;BME280;46188;52.324;8.032;2023-09-19T01:00:33;99547.03;;;16.05;100.00
60345;BME280;46188;52.324;8.032;2023-09-19T01:03:00;99546.03;;;16.10;100.00
60345;BME280;46188;52.324;8.032;2023-09-19T01:05:27;99536.97;;;16.17;100.00
60345;BME280;46188;52.324;8.032;2023-09-19T01:07:52;99538.75;;;16.16;100.00
60345;BME280;46188;52.324;8.032;2023-09-19T01:10:18;99539.03;;;16.07;100.00
60345;BME280;46188;52.324;8.032;2023-09-19T01:12:48;99545.22;;;16.08;100.00
60345;BME280;46188;52.324;8.032;2023-09-19T01:15:28;99547.75;;;16.12;100.00
60345;BME280;46188;52.324;8.032;2023-09-19T01:21:10;99544.56;;;15.98;100.00
60345;BME280;46188;52.324;8.032;2023-09-19T01:23:53;99565.00;;;15.96;100.00
60345;BME280;46188;52.324;8.032;2023-09-19T01:26:52;99556.25;;;15.92;100.00
60345;BME280;46188;52.324;8.032;2023-09-19T01:32:01;99570.22;;;16.00;100.00
60345;BME280;46188;52.324;8.032;2023-09-19T01:34:46;99555.53;;;15.85;100.00
60345;BME280;46188;52.324;8.032;2023-09-19T01:37:12;99556.44;;;15.84;100.00
60345;BME280;46188;52.324;8.032;2023-09-19T01:39:39;99559.19;;;15.80;100.00
60345;BME280;46188;52.324;8.032;2023-09-19T01:42:31;99573.34;;;15.80;100.00
60345;BME280;46188;52.324;8.032;2023-09-19T01:45:06;99572.50;;;15.80;100.00
60345;BME280;46188;52.324;8.032;2023-09-19T01:47:40;99577.72;;;15.83;100.00
60345;BME280;46188;52.324;8.032;2023-09-19T01:50:24;99579.53;;;15.82;100.00
60345;BME280;46188;52.324;8.032;2023-09-19T01:52:57;99587.63;;;15.76;100.00
60345;BME280;46188;52.324;8.032;2023-09-19T01:55:28;99584.97;;;15.76;100.00
60345;BME280;46188;52.324;8.032;2023-09-19T01:58:01;99597.28;;;15.80;100.00
60345;BME280;46188;52.324;8.032;2023-09-19T02:00:27;99585.06;;;15.72;100.00
60345;BME280;46188;52.324;8.032;2023-09-19T02:02:55;99592.09;;;15.74;100.00
60345;BME280;46188;52.324;8.032;2023-09-19T02:05:24;99586.03;;;15.69;100.00
60345;BME280;46188;52.324;8.032;2023-09-19T02:07:50;99600.13;;;15.71;100.00
60345;BME280;46188;52.324;8.032;2023-09-19T02:10:15;99588.91;;;15.58;100.00
60345;BME280;46188;52.324;8.032;2023-09-19T02:12:42;99594.97;;;15.65;100.00
60345;BME280;46188;52.324;8.032;2023-09-19T02:15:08;99596.78;;;15.63;100.00
60345;BME280;46188;52.324;8.032;2023-09-19T02:17:34;99597.59;;;15.66;100.00
60345;BME280;46188;52.324;8.032;2023-09-19T02:20:00;99599.38;;;15.66;100.00
60345;BME280;46188;52.324;8.032;2023-09-19T02:22:26;99603.94;;;15.61;100.00
60345;BME280;46188;52.324;8.032;2023-09-19T02:24:52;99595.00;;;15.63;100.00
60345;BME280;46188;52.324;8.032;2023-09-19T02:27:19;99603.03;;;15.60;100.00
60345;BME280;46188;52.324;8.032;2023-09-19T02:29:44;99597.03;;;15.52;100.00
60345;BME280;46188;52.324;8.032;2023-09-19T02:32:09;99599.84;;;15.46;100.00
60345;BME280;46188;52.324;8.032;2023-09-19T02:34:35;99613.22;;;15.41;100.00
60345;BME280;46188;52.324;8.032;2023-09-19T02:37:05;99608.03;;;15.35;100.00
60345;BME280;46188;52.324;8.032;2023-09-19T02:39:31;99610.75;;;15.32;100.00
60345;BME280;46188;52.324;8.032;2023-09-19T02:41:56;99612.47;;;15.36;100.00
60345;BME280;46188;52.324;8.032;2023-09-19T02:44:22;99606.38;;;15.31;100.00
60345;BME280;46188;52.324;8.032;2023-09-19T02:46:47;99608.91;;;15.36;100.00
60345;BME280;46188;52.324;8.032;2023-09-19T02:49:12;99613.34;;;15.35;100.00
60345;BME280;46188;52.324;8.032;2023-09-19T02:51:38;99609.13;;;15.26;100.00
60345;BME280;46188;52.324;8.032;2023-09-19T02:54:04;99616.13;;;15.29;100.00
60345;BME280;46188;52.324;8.032;2023-09-19T02:56:29;99629.56;;;15.23;100.00
60345;BME280;46188;52.324;8.032;2023-09-19T02:58:56;99617.28;;;15.17;100.00
60345;BME280;46188;52.324;8.032;2023-09-19T03:01:21;99636.81;;;15.15;100.00
60345;BME280;46188;52.324;8.032;2023-09-19T03:03:47;99626.28;;;15.10;100.00
60345;BME280;46188;52.324;8.032;2023-09-19T03:06:12;99631.56;;;15.11;100.00
60345;BME280;46188;52.324;8.032;2023-09-19T03:08:38;99636.03;;;15.11;100.00
60345;BME280;46188;52.324;8.032;2023-09-19T03:11:04;99636.13;;;15.05;100.00
60345;BME280;46188;52.324;8.032;2023-09-19T03:13:35;99630.88;;;15.02;100.00
60345;BME280;46188;52.324;8.032;2023-09-19T03:16:01;99629.47;;;14.84;100.00
60345;BME280;46188;52.324;8.032;2023-09-19T03:18:30;99633.84;;;14.88;100.00
60345;BME280;46188;52.324;8.032;2023-09-19T03:20:57;99632.88;;;14.90;100.00
60345;BME280;46188;52.324;8.032;2023-09-19T03:23:23;99640.94;;;14.86;100.00
60345;BME280;46188;52.324;8.032;2023-09-19T03:25:49;99645.50;;;14.77;100.00
60345;BME280;46188;52.324;8.032;2023-09-19T03:28:14;99631.47;;;14.72;100.00
60345;BME280;46188;52.324;8.032;2023-09-19T03:30:41;99639.38;;;14.75;100.00
60345;BME280;46188;52.324;8.032;2023-09-19T03:33:07;99645.63;;;14.73;100.00
60345;BME280;46188;52.324;8.032;2023-09-19T03:35:33;99642.09;;;14.71;100.00
60345;BME280;46188;52.324;8.032;2023-09-19T03:37:59;99645.72;;;14.68;100.00
60345;BME280;46188;52.324;8.032;2023-09-19T03:40:25;99654.66;;;14.61;100.00
60345;BME280;46188;52.324;8.032;2023-09-19T03:42:51;99645.81;;;14.62;100.00
60345;BME280;46188;52.324;8.032;2023-09-19T03:45:16;99652.94;;;14.58;100.00
60345;BME280;46188;52.324;8.032;2023-09-19T03:47:43;99646.66;;;14.64;100.00
60345;BME280;46188;52.324;8.032;2023-09-19T03:50:09;99636.06;;;14.63;100.00
60345;BME280;46188;52.324;8.032;2023-09-19T03:52:36;99642.25;;;14.65;100.00
60345;BME280;46188;52.324;8.032;2023-09-19T03:55:01;99636.13;;;14.60;100.00
60345;BME280;46188;52.324;8.032;2023-09-19T03:57:30;99635.94;;;14.70;100.00
60345;BME280;46188;52.324;8.032;2023-09-19T03:59:55;99633.28;;;14.70;100.00
60345;BME280;46188;52.324;8.032;2023-09-19T04:02:21;99642.91;;;14.74;100.00
60345;BME280;46188;52.324;8.032;2023-09-19T04:04:50;99642.09;;;14.71;100.00
60345;BME280;46188;52.324;8.032;2023-09-19T04:07:16;99652.72;;;14.71;100.00
60345;BME280;46188;52.324;8.032;2023-09-19T04:09:42;99673.88;;;14.74;100.00
60345;BME280;46188;52.324;8.032;2023-09-19T04:12:07;99665.97;;;14.71;100.00
60345;BME280;46188;52.324;8.032;2023-09-19T04:14:34;99662.38;;;14.75;100.00
60345;BME280;46188;52.324;8.032;2023-09-19T04:16:59;99665.84;;;14.79;100.00
60345;BME280;46188;52.324;8.032;2023-09-19T04:19:25;99666.88;;;14.71;100.00
60345;BME280;46188;52.324;8.032;2023-09-19T04:21:51;99653.63;;;14.71;100.00
60345;BME280;46188;52.324;8.032;2023-09-19T04:24:16;99651.94;;;14.66;100.00
60345;BME280;46188;52.324;8.032;2023-09-19T04:26:44;99651.97;;;14.63;100.00
60345;BME280;46188;52.324;8.032;2023-09-19T04:29:09;99654.72;;;14.58;100.00
60345;BME280;46188;52.324;8.032;2023-09-19T04:31:36;99666.25;;;14.54;100.00
60345;BME280;46188;52.324;8.032;2023-09-19T04:34:09;99651.28;;;14.51;100.00
60345;BME280;46188;52.324;8.032;2023-09-19T04:36:35;99675.28;;;14.44;100.00
60345;BME280;46188;52.324;8.032;2023-09-19T04:39:02;99677.19;;;14.37;100.00
60345;BME280;46188;52.324;8.032;2023-09-19T04:41:30;99681.59;;;14.36;100.00
60345;BME280;46188;52.324;8.032;2023-09-19T04:43:55;99670.22;;;14.30;100.00
60345;BME280;46188;52.324;8.032;2023-09-19T04:46:20;99667.53;;;14.31;100.00
60345;BME280;46188;52.324;8.032;2023-09-19T04:48:45;99667.41;;;14.39;100.00
60345;BME280;46188;52.324;8.032;2023-09-19T04:51:11;99661.34;;;14.32;100.00
60345;BME280;46188;52.324;8.032;2023-09-19T04:53:36;99680.03;;;14.23;100.00
60345;BME280;46188;52.324;8.032;2023-09-19T04:56:02;99667.63;;;14.27;100.00
60345;BME280;46188;52.324;8.032;2023-09-19T04:58:28;99672.03;;;14.26;100.00
60345;BME280;46188;52.324;8.032;2023-09-19T05:00:54;99694.16;;;14.25;100.00
60345;BME280;46188;52.324;8.032;2023-09-19T05:03:19;99697.75;;;14.21;100.00
60345;BME280;46188;52.324;8.032;2023-09-19T05:05:47;99711.88;;;14.21;100.00
60345;BME280;46188;52.324;8.032;2023-09-19T05:08:12;99718.06;;;14.24;100.00
60345;BME280;46188;52.324;8.032;2023-09-19T05:10:39;99726.13;;;14.14;100.00
60345;BME280;46188;52.324;8.032;2023-09-19T05:13:05;99723.50;;;14.13;100.00
60345;BME280;46188;52.324;8.032;2023-09-19T05:15:32;99726.13;;;14.16;100.00
60345;BME280;46188;52.324;8.032;2023-09-19T05:17:57;99724.31;;;14.18;100.00
60345;BME280;46188;52.324;8.032;2023-09-19T05:20:22;99742.00;;;14.17;100.00
60345;BME280;46188;52.324;8.032;2023-09-19T05:23:06;99742.97;;;14.12;100.00
60345;BME280;46188;52.324;8.032;2023-09-19T05:25:39;99741.19;;;14.14;100.00
60345;BME280;46188;52.324;8.032;2023-09-19T05:28:08;99749.09;;;14.15;100.00
60345;BME280;46188;52.324;8.032;2023-09-19T05:30:35;99748.41;;;14.02;100.00
60345;BME280;46188;52.324;8.032;2023-09-19T05:33:04;99736.06;;;14.00;100.00
60345;BME280;46188;52.324;8.032;2023-09-19T05:35:29;99737.06;;;13.93;100.00
60345;BME280;46188;52.324;8.032;2023-09-19T05:37:55;99735.25;;;13.96;100.00
60345;BME280;46188;52.324;8.032;2023-09-19T05:40:21;99739.66;;;13.97;100.00
60345;BME280;46188;52.324;8.032;2023-09-19T05:42:47;99736.19;;;13.92;100.00
60345;BME280;46188;52.324;8.032;2023-09-19T05:45:13;99738.88;;;13.89;100.00
60345;BME280;46188;52.324;8.032;2023-09-19T05:47:42;99737.13;;;13.87;100.00
60345;BME280;46188;52.324;8.032;2023-09-19T05:50:08;99735.47;;;13.81;100.00
60345;BME280;46188;52.324;8.032;2023-09-19T05:52:37;99738.09;;;13.84;100.00
60345;BME280;46188;52.324;8.032;2023-09-19T05:55:04;99736.34;;;13.80;100.00
60345;BME280;46188;52.324;8.032;2023-09-19T05:57:31;99725.00;;;13.70;100.00
60345;BME280;46188;52.324;8.032;2023-09-19T05:59:57;99732.06;;;13.71;100.00
60345;BME280;46188;52.324;8.032;2023-09-19T06:02:22;99740.06;;;13.66;100.00
60345;BME280;46188;52.324;8.032;2023-09-19T06:04:48;99725.88;;;13.74;100.00
60345;BME280;46188;52.324;8.032;2023-09-19T06:07:14;99735.59;;;13.70;100.00
60345;BME280;46188;52.324;8.032;2023-09-19T06:09:40;99743.53;;;13.72;100.00
60345;BME280;46188;52.324;8.032;2023-09-19T06:12:06;99750.66;;;13.66;100.00
60345;BME280;46188;52.324;8.032;2023-09-19T06:14:31;99752.41;;;13.71;100.00
60345;BME280;46188;52.324;8.032;2023-09-19T06:16:57;99759.44;;;13.72;100.00
60345;BME280;46188;52.324;8.032;2023-09-19T06:19:22;99754.09;;;13.73;100.00
60345;BME280;46188;52.324;8.032;2023-09-19T06:21:48;99762.88;;;13.78;100.00
60345;BME280;46188;52.324;8.032;2023-09-19T06:24:14;99755.78;;;13.82;100.00
60345;BME280;46188;52.324;8.032;2023-09-19T06:26:39;99769.03;;;13.82;100.00
60345;BME280;46188;52.324;8.032;2023-09-19T06:29:05;99760.94;;;13.90;100.00
60345;BME280;46188;52.324;8.032;2023-09-19T06:31:33;99761.75;;;13.95;100.00
60345;BME280;46188;52.324;8.032;2023-09-19T06:33:58;99745.78;;;13.99;100.00
60345;BME280;46188;52.324;8.032;2023-09-19T06:36:23;99742.28;;;13.99;100.00
60345;BME280;46188;52.324;8.032;2023-09-19T06:38:49;99737.88;;;13.96;100.00
60345;BME280;46188;52.324;8.032;2023-09-19T06:41:16;99742.28;;;13.99;100.00
60345;BME280;46188;52.324;8.032;2023-09-19T06:43:42;99747.53;;;14.03;100.00
60345;BME280;46188;52.324;8.032;2023-09-19T06:46:07;99759.84;;;14.06;100.00
60345;BME280;46188;52.324;8.032;2023-09-19T06:48:33;99764.22;;;14.09;100.00
60345;BME280;46188;52.324;8.032;2023-09-19T06:50:58;99767.69;;;14.12;100.00
60345;BME280;46188;52.324;8.032;2023-09-19T06:53:26;99776.44;;;14.19;100.00
60345;BME280;46188;52.324;8.032;2023-09-19T06:55:52;99778.25;;;14.17;100.00
60345;BME280;46188;52.324;8.032;2023-09-19T06:58:17;99779.91;;;14.23;100.00
60345;BME280;46188;52.324;8.032;2023-09-19T07:00:42;99781.69;;;14.22;100.00
60345;BME280;46188;52.324;8.032;2023-09-19T07:03:09;99784.38;;;14.20;100.00
60345;BME280;46188;52.324;8.032;2023-09-19T07:05:38;99781.50;;;14.33;100.00
60345;BME280;46188;52.324;8.032;2023-09-19T07:08:05;99789.47;;;14.33;100.00
60345;BME280;46188;52.324;8.032;2023-09-19T07:10:31;99808.16;;;14.25;100.00
60345;BME280;46188;52.324;8.032;2023-09-19T07:13:02;99807.16;;;14.32;100.00
60345;BME280;46188;52.324;8.032;2023-09-19T07:15:29;99813.28;;;14.37;100.00
60345;BME280;46188;52.324;8.032;2023-09-19T07:17:58;99806.25;;;14.35;100.00
60345;BME280;46188;52.324;8.032;2023-09-19T07:20:24;99796.34;;;14.45;100.00
60345;BME280;46188;52.324;8.032;2023-09-19T07:22:55;99810.50;;;14.45;100.00
60345;BME280;46188;52.324;8.032;2023-09-19T07:25:20;99807.84;;;14.47;100.00
60345;BME280;46188;52.324;8.032;2023-09-19T07:27:46;99812.19;;;14.49;100.00
60345;BME280;46188;52.324;8.032;2023-09-19T07:30:12;99811.22;;;14.58;100.00
60345;BME280;46188;52.324;8.032;2023-09-19T07:32:38;99810.25;;;14.64;100.00
60345;BME280;46188;52.324;8.032;2023-09-19T07:35:04;99815.34;;;14.76;100.00
60345;BME280;46188;52.324;8.032;2023-09-19T07:37:31;99801.91;;;14.87;100.00
60345;BME280;46188;52.324;8.032;2023-09-19T07:40:05;99786.75;;;14.93;100.00
60345;BME280;46188;52.324;8.032;2023-09-19T07:42:37;99778.72;;;14.98;100.00
60345;BME280;46188;52.324;8.032;2023-09-19T07:45:04;99775.09;;;15.01;100.00
60345;BME280;46188;52.324;8.032;2023-09-19T07:47:30;99784.78;;;15.05;100.00
60345;BME280;46188;52.324;8.032;2023-09-19T07:49:58;99791.69;;;15.13;100.00
60345;BME280;46188;52.324;8.032;2023-09-19T07:52:23;99796.97;;;15.15;100.00
60345;BME280;46188;52.324;8.032;2023-09-19T07:54:49;99804.81;;;15.23;100.00
60345;BME280;46188;52.324;8.032;2023-09-19T07:57:15;99800.38;;;15.22;100.00
60345;BME280;46188;52.324;8.032;2023-09-19T07:59:41;99796.53;;;15.38;100.00
60345;BME280;46188;52.324;8.032;2023-09-19T08:02:07;99802.56;;;15.46;100.00
60345;BME280;46188;52.324;8.032;2023-09-19T08:04:35;99806.16;;;15.44;100.00
60345;BME280;46188;52.324;8.032;2023-09-19T08:07:00;99800.09;;;15.37;100.00
60345;BME280;46188;52.324;8.032;2023-09-19T08:09:28;99801.81;;;15.40;100.00
60345;BME280;46188;52.324;8.032;2023-09-19T08:11:58;99808.91;;;15.41;100.00
60345;BME280;46188;52.324;8.032;2023-09-19T08:14:23;99802.78;;;15.34;100.00
60345;BME280;46188;52.324;8.032;2023-09-19T08:16:50;99806.28;;;15.38;100.00
60345;BME280;46188;52.324;8.032;2023-09-19T08:19:15;99827.31;;;15.48;100.00
60345;BME280;46188;52.324;8.032;2023-09-19T08:21:40;99816.38;;;15.64;100.00
60345;BME280;46188;52.324;8.032;2023-09-19T08:24:06;99809.00;;;15.80;100.00
60345;BME280;46188;52.324;8.032;2023-09-19T08:26:31;99820.50;;;15.80;100.00
60345;BME280;46188;52.324;8.032;2023-09-19T08:28:56;99818.81;;;15.78;100.00
60345;BME280;46188;52.324;8.032;2023-09-19T08:31:22;99819.63;;;15.80;100.00
60345;BME280;46188;52.324;8.032;2023-09-19T08:33:48;99808.16;;;15.78;100.00
60345;BME280;46188;52.324;8.032;2023-09-19T08:36:14;99824.91;;;15.81;100.00
60345;BME280;46188;52.324;8.032;2023-09-19T08:38:40;99828.22;;;15.93;100.00
60345;BME280;46188;52.324;8.032;2023-09-19T08:41:06;99837.06;;;15.93;100.00
60345;BME280;46188;52.324;8.032;2023-09-19T08:43:35;99822.75;;;16.00;100.00
60345;BME280;46188;52.324;8.032;2023-09-19T08:46:10;99821.91;;;15.98;100.00
60345;BME280;46188;52.324;8.032;2023-09-19T08:48:41;99829.88;;;15.98;100.00
60345;BME280;46188;52.324;8.032;2023-09-19T08:51:15;99820.00;;;16.03;100.00
60345;BME280;46188;52.324;8.032;2023-09-19T08:56:17;99840.53;;;15.97;100.00
60345;BME280;46188;52.324;8.032;2023-09-19T08:58:57;99825.41;;;16.00;100.00
60345;BME280;46188;52.324;8.032;2023-09-19T09:01:23;99824.69;;;15.94;100.00
60345;BME280;46188;52.324;8.032;2023-09-19T09:03:56;99813.69;;;16.09;100.00
60345;BME280;46188;52.324;8.032;2023-09-19T09:06:23;99826.88;;;16.15;100.00
60345;BME280;46188;52.324;8.032;2023-09-19T09:08:51;99820.19;;;16.35;100.00
60345;BME280;46188;52.324;8.032;2023-09-19T09:11:18;99821.81;;;16.42;100.00
60345;BME280;46188;52.324;8.032;2023-09-19T09:13:44;99827.91;;;16.47;100.00
60345;BME280;46188;52.324;8.032;2023-09-19T09:16:10;99819.59;;;16.61;100.00
60345;BME280;46188;52.324;8.032;2023-09-19T09:18:36;99848.00;;;16.60;100.00
60345;BME280;46188;52.324;8.032;2023-09-19T09:21:02;99812.91;;;16.43;100.00
60345;BME280;46188;52.324;8.032;2023-09-19T09:23:29;99816.25;;;16.51;100.00
60345;BME280;46188;52.324;8.032;2023-09-19T09:25:56;99829.09;;;16.71;100.00
60345;BME280;46188;52.324;8.032;2023-09-19T09:28:29;99826.38;;;16.73;100.00
60345;BME280;46188;52.324;8.032;2023-09-19T09:30:56;99830.69;;;16.78;100.00
60345;BME280;46188;52.324;8.032;2023-09-19T09:33:23;99826.13;;;16.85;100.00
60345;BME280;46188;52.324;8.032;2023-09-19T09:36:00;99827.00;;;16.84;99.76
60345;BME280;46188;52.324;8.032;2023-09-19T09:38:46;99827.72;;;16.92;97.92
60345;BME280;46188;52.324;8.032;2023-09-19T09:41:15;99830.31;;;16.95;97.88
60345;BME280;46188;52.324;8.032;2023-09-19T09:43:52;99822.91;;;17.07;96.75
60345;BME280;46188;52.324;8.032;2023-09-19T09:46:19;99836.19;;;17.08;97.38
60345;BME280;46188;52.324;8.032;2023-09-19T09:51:48;99819.06;;;17.51;93.63
60345;BME280;46188;52.324;8.032;2023-09-19T09:54:23;99827.41;;;17.38;95.45
60345;BME280;46188;52.324;8.032;2023-09-19T09:56:59;99818.28;;;17.48;93.07
60345;BME280;46188;52.324;8.032;2023-09-19T10:02:29;99831.22;;;17.60;90.52
60345;BME280;46188;52.324;8.032;2023-09-19T10:04:58;99828.50;;;17.63;89.81
60345;BME280;46188;52.324;8.032;2023-09-19T10:07:39;99826.22;;;17.81;90.21
60345;BME280;46188;52.324;8.032;2023-09-19T10:10:08;99832.38;;;17.83;89.80
60345;BME280;46188;52.324;8.032;2023-09-19T10:12:47;99841.28;;;17.82;87.58
60345;BME280;46188;52.324;8.032;2023-09-19T10:15:15;99816.13;;;17.92;87.17
60345;BME280;46188;52.324;8.032;2023-09-19T10:17:44;99819.16;;;18.10;86.69
60345;BME280;46188;52.324;8.032;2023-09-19T10:20:16;99819.31;;;18.05;87.46
60345;BME280;46188;52.324;8.032;2023-09-19T10:22:56;99827.00;;;18.16;86.44
60345;BME280;46188;52.324;8.032;2023-09-19T10:25:29;99823.53;;;18.12;84.80
60345;BME280;46188;52.324;8.032;2023-09-19T10:27:57;99831.44;;;18.15;84.12
60345;BME280;46188;52.324;8.032;2023-09-19T10:30:24;99822.25;;;18.25;84.81
60345;BME280;46188;52.324;8.032;2023-09-19T10:33:02;99825.56;;;18.34;82.84
60345;BME280;46188;52.324;8.032;2023-09-19T10:35:28;99817.66;;;18.31;82.69
60345;BME280;46188;52.324;8.032;2023-09-19T10:37:59;99820.72;;;18.17;82.24
60345;BME280;46188;52.324;8.032;2023-09-19T10:40:27;99838.91;;;18.04;83.72
60345;BME280;46188;52.324;8.032;2023-09-19T10:43:01;99835.94;;;18.13;83.83
60345;BME280;46188;52.324;8.032;2023-09-19T10:45:31;99836.31;;;18.31;83.70
60345;BME280;46188;52.324;8.032;2023-09-19T10:47:57;99823.97;;;18.26;84.12
60345;BME280;46188;52.324;8.032;2023-09-19T10:50:23;99820.69;;;18.18;85.00
60345;BME280;46188;52.324;8.032;2023-09-19T10:52:50;99815.28;;;18.20;85.51
60345;BME280;46188;52.324;8.032;2023-09-19T10:55:25;99817.41;;;18.08;85.62
60345;BME280;46188;52.324;8.032;2023-09-19T10:57:51;99812.63;;;18.20;85.29
60345;BME280;46188;52.324;8.032;2023-09-19T11:00:17;99807.03;;;18.29;83.80
60345;BME280;46188;52.324;8.032;2023-09-19T11:03:22;99825.22;;;18.15;82.77
60345;BME280;46188;52.324;8.032;2023-09-19T11:06:12;99836.72;;;18.17;82.90
60345;BME280;46188;52.324;8.032;2023-09-19T11:09:03;99828.72;;;18.17;82.70
60345;BME280;46188;52.324;8.032;2023-09-19T11:30:48;99816.84;;;18.27;79.56
60345;BME280;46188;52.324;8.032;2023-09-19T11:36:07;99839.91;;;18.00;80.70
60345;BME280;46188;52.324;8.032;2023-09-19T11:43:54;99820.84;;;18.12;81.01
60345;BME280;46188;52.324;8.032;2023-09-19T11:49:16;99826.88;;;18.49;78.10
60345;BME280;46188;52.324;8.032;2023-09-19T11:51:46;99804.75;;;18.43;75.88
60345;BME280;46188;52.324;8.032;2023-09-19T11:54:13;99811.91;;;18.43;76.16
60345;BME280;46188;52.324;8.032;2023-09-19T11:56:54;99787.66;;;18.51;76.50
60345;BME280;46188;52.324;8.032;2023-09-19T11:59:20;99811.72;;;18.76;76.54
60345;BME280;46188;52.324;8.032;2023-09-19T12:01:52;99790.63;;;18.95;74.67
60345;BME280;46188;52.324;8.032;2023-09-19T12:04:43;99801.16;;;18.99;74.62
60345;BME280;46188;52.324;8.032;2023-09-19T12:07:12;99790.19;;;19.09;73.89
60345;BME280;46188;52.324;8.032;2023-09-19T12:09:42;99806.22;;;19.34;72.93
60345;BME280;46188;52.324;8.032;2023-09-19T12:12:25;99794.09;;;19.24;72.37
60345;BME280;46188;52.324;8.032;2023-09-19T12:14:54;99779.81;;;19.25;72.19
60345;BME280;46188;52.324;8.032;2023-09-19T12:17:20;99775.53;;;19.44;71.70
60345;BME280;46188;52.324;8.032;2023-09-19T12:19:55;99776.28;;;19.48;69.86
60345;BME280;46188;52.324;8.032;2023-09-19T12:22:21;99767.88;;;19.59;69.54
60345;BME280;46188;52.324;8.032;2023-09-19T12:24:47;99765.31;;;19.55;68.90
60345;BME280;46188;52.324;8.032;2023-09-19T12:27:13;99781.03;;;19.65;68.78
60345;BME280;46188;52.324;8.032;2023-09-19T12:29:43;99779.97;;;19.69;68.72
60345;BME280;46188;52.324;8.032;2023-09-19T12:32:09;99772.31;;;19.60;68.91
60345;BME280;46188;52.324;8.032;2023-09-19T12:34:35;99778.03;;;19.49;68.96
60345;BME280;46188;52.324;8.032;2023-09-19T12:37:14;99757.78;;;19.43;69.13
60345;BME280;46188;52.324;8.032;2023-09-19T12:39:48;99752.75;;;19.34;71.21
60345;BME280;46188;52.324;8.032;2023-09-19T12:42:17;99775.09;;;19.57;70.47
60345;BME280;46188;52.324;8.032;2023-09-19T12:44:50;99763.13;;;19.43;70.22
60345;BME280;46188;52.324;8.032;2023-09-19T12:47:22;99775.00;;;19.34;69.73
60345;BME280;46188;52.324;8.032;2023-09-19T12:52:51;99748.69;;;19.24;68.61
60345;BME280;46188;52.324;8.032;2023-09-19T12:55:20;99736.72;;;19.34;68.94
60345;BME280;46188;52.324;8.032;2023-09-19T12:58:09;99762.41;;;19.38;68.85
60345;BME280;46188;52.324;8.032;2023-09-19T13:00:41;99756.06;;;19.41;69.56
60345;BME280;46188;52.324;8.032;2023-09-19T13:05:48;99765.03;;;19.14;68.16
60345;BME280;46188;52.324;8.032;2023-09-19T13:08:18;99763.56;;;19.06;68.15
60345;BME280;46188;52.324;8.032;2023-09-19T13:11:05;99769.00;;;19.03;67.78
60345;BME280;46188;52.324;8.032;2023-09-19T13:13:32;99769.88;;;19.03;68.37
60345;BME280;46188;52.324;8.032;2023-09-19T13:15:58;99757.56;;;18.99;68.24
60345;BME280;46188;52.324;8.032;2023-09-19T13:18:26;99749.66;;;18.96;69.22
60345;BME280;46188;52.324;8.032;2023-09-19T13:21:14;99744.81;;;19.07;69.53
60345;BME280;46188;52.324;8.032;2023-09-19T13:23:48;99749.44;;;19.02;69.61
60345;BME280;46188;52.324;8.032;2023-09-19T13:26:13;99758.44;;;18.99;69.97
60345;BME280;46188;52.324;8.032;2023-09-19T13:28:38;99759.44;;;18.97;69.67
60345;BME280;46188;52.324;8.032;2023-09-19T13:31:04;99758.53;;;18.96;70.03
60345;BME280;46188;52.324;8.032;2023-09-19T13:33:29;99769.50;;;18.89;70.77
60345;BME280;46188;52.324;8.032;2023-09-19T13:35:55;99754.69;;;18.78;70.49
60345;BME280;46188;52.324;8.032;2023-09-19T13:38:22;99750.81;;;18.89;69.96
60345;BME280;46188;52.324;8.032;2023-09-19T13:40:48;99741.66;;;18.96;70.39
60345;BME280;46188;52.324;8.032;2023-09-19T13:43:13;99742.84;;;19.12;70.61
60345;BME280;46188;52.324;8.032;2023-09-19T13:45:39;99734.53;;;19.45;70.17
60345;BME280;46188;52.324;8.032;2023-09-19T13:48:07;99747.47;;;19.81;69.24
60345;BME280;46188;52.324;8.032;2023-09-19T13:50:34;99734.50;;;19.92;68.64